Decoded Metar for VTCC (CHIANG MAI(CIV/A in THAILAND) (IATA:N/A) | Meteo·Mobile Aviation Weather
aviador You're here:

VTCC Decoded Metar

CHIANG MAI(CIV/A in THAILAND
Report Time2019-10-19 22:00:00
UTC Time2019-10-19 22:23:39
Flight Rules vfr VFR
WindCalm
Visibility9999 m
Phenomena:N/A
Clouds:Few 035 Hf
Expected CloudBase > 400 ft AGL from Temp-Dew spread
CeilingNone
Temp23°C (ISA +10)
Dew Point22°C (94% RH)
QNH1017 hPa
Density Alt2,415 ft
Elevation1,030 ft
Report Wrong Elevation
Raw Report
VTCC 192200Z 00000KT 9999 FEW035 23/22 Q1017 NOSIG=

Extra information for VTCC:More info

Metar Taf Metar & Taf Last 4 Metars F.Rules Stats Wind Profile Meteogram Temp Stats Airport Information Weather charts Add Link Nearby VenuesMetar ALERT Operation Metar Decoded Social comments